createdAt,value
2018-06-29T00:00:21.330Z,45.30
2018-06-29T00:02:49.744Z,47.83
2018-06-29T00:05:19.269Z,50.23
2018-06-29T00:07:48.222Z,47.97
2018-06-29T00:10:20.946Z,46.20
2018-06-29T00:12:49.437Z,48.20
2018-06-29T00:15:17.827Z,47.67
2018-06-29T00:17:46.565Z,47.60
2018-06-29T00:20:15.094Z,47.70
2018-06-29T00:22:44.079Z,48.30
2018-06-29T00:25:13.965Z,49.53
2018-06-29T00:27:42.818Z,46.40
2018-06-29T00:30:11.786Z,48.73
2018-06-29T00:32:40.635Z,48.53
2018-06-29T00:35:08.727Z,46.77
2018-06-29T00:37:39.252Z,47.03
2018-06-29T00:40:07.344Z,48.03
2018-06-29T00:42:37.067Z,48.70
2018-06-29T00:45:05.433Z,50.10
2018-06-29T00:47:33.599Z,49.07
2018-06-29T00:50:02.536Z,51.77
2018-06-29T00:52:30.900Z,51.10
2018-06-29T00:54:58.949Z,50.57
2018-06-29T00:57:27.009Z,49.30
2018-06-29T00:59:55.111Z,49.87
2018-06-29T01:02:23.132Z,50.20
2018-06-29T01:04:51.322Z,47.47
2018-06-29T01:07:19.671Z,51.73
2018-06-29T01:09:47.998Z,52.20
2018-06-29T01:12:16.397Z,49.73
2018-06-29T01:14:44.732Z,46.53
2018-06-29T01:17:14.097Z,47.40
2018-06-29T01:19:42.680Z,46.60
2018-06-29T01:22:11.487Z,46.70
2018-06-29T01:24:39.564Z,44.40
2018-06-29T01:27:08.112Z,47.60
2018-06-29T01:29:36.426Z,48.33
2018-06-29T01:32:04.602Z,41.87
2018-06-29T01:34:33.478Z,44.07
2018-06-29T01:37:01.504Z,43.80
2018-06-29T01:39:29.530Z,43.33
2018-06-29T01:41:57.543Z,47.03
2018-06-29T01:44:25.567Z,44.87
2018-06-29T01:46:53.529Z,44.23
2018-06-29T01:49:21.665Z,42.40
2018-06-29T01:51:50.597Z,45.47
2018-06-29T01:54:18.684Z,45.37
2018-06-29T01:56:46.992Z,49.10
2018-06-29T01:59:15.439Z,48.67
2018-06-29T02:01:44.619Z,49.53
2018-06-29T02:04:13.361Z,48.87
2018-06-29T02:06:45.848Z,48.37
2018-06-29T02:09:16.776Z,50.43
2018-06-29T02:11:45.338Z,50.93
2018-06-29T02:14:13.685Z,52.90
2018-06-29T02:16:42.117Z,52.97
2018-06-29T02:19:11.640Z,49.10
2018-06-29T02:21:39.646Z,48.73
2018-06-29T02:24:08.016Z,48.73
2018-06-29T02:26:36.161Z,50.60
2018-06-29T02:29:04.510Z,49.97
2018-06-29T02:31:33.020Z,46.60
2018-06-29T02:34:01.018Z,48.63
2018-06-29T02:36:28.984Z,47.70
2018-06-29T02:38:57.006Z,48.00
2018-06-29T02:41:25.002Z,48.73
2018-06-29T02:43:53.008Z,48.80
2018-06-29T02:46:27.664Z,50.37
2018-06-29T02:48:56.507Z,49.07
2018-06-29T02:51:24.522Z,49.87
2018-06-29T02:53:52.585Z,52.30
2018-06-29T02:56:20.730Z,52.77
2018-06-29T02:58:48.974Z,52.27
2018-06-29T03:01:17.217Z,51.30
2018-06-29T03:03:45.702Z,50.57
2018-06-29T03:06:14.351Z,48.30
2018-06-29T03:08:42.620Z,50.00
2018-06-29T03:11:10.937Z,47.77
2018-06-29T03:13:39.079Z,47.50
2018-06-29T03:16:07.190Z,45.80
2018-06-29T03:18:35.859Z,53.40
2018-06-29T03:21:04.156Z,48.07
2018-06-29T03:23:32.275Z,47.80
2018-06-29T03:26:00.430Z,48.20
2018-06-29T03:28:28.426Z,50.63
2018-06-29T03:31:01.972Z,48.77
2018-06-29T03:33:29.979Z,47.70
2018-06-29T03:35:57.997Z,46.60
2018-06-29T03:38:26.093Z,47.73
2018-06-29T03:40:54.340Z,46.10
2018-06-29T03:43:22.301Z,46.90
2018-06-29T03:45:50.826Z,49.20
2018-06-29T03:48:19.061Z,47.77
2018-06-29T03:50:47.344Z,45.50
2018-06-29T03:53:16.511Z,45.40
2018-06-29T03:55:47.127Z,46.83
2018-06-29T03:58:15.909Z,49.03
2018-06-29T04:00:45.262Z,48.17
2018-06-29T04:03:14.871Z,47.20
2018-06-29T04:05:43.526Z,46.17
2018-06-29T04:08:11.684Z,50.10
2018-06-29T04:10:39.896Z,50.57
2018-06-29T04:13:07.968Z,47.37
2018-06-29T04:15:36.251Z,47.73
2018-06-29T04:18:07.598Z,48.70
2018-06-29T04:20:35.874Z,47.10
2018-06-29T04:23:04.334Z,49.20
2018-06-29T04:25:36.311Z,50.63
2018-06-29T04:28:04.927Z,53.60
2018-06-29T04:30:34.139Z,51.10
2018-06-29T04:33:02.216Z,50.27
2018-06-29T04:35:30.484Z,50.57
2018-06-29T04:38:03.878Z,51.30
2018-06-29T04:40:32.112Z,54.80
2018-06-29T04:43:00.853Z,53.97
2018-06-29T04:45:29.177Z,55.67
2018-06-29T04:48:02.340Z,52.43
2018-06-29T04:50:34.106Z,56.60
2018-06-29T04:53:07.491Z,56.43
2018-06-29T04:55:35.515Z,55.47
2018-06-29T04:58:04.017Z,51.73
2018-06-29T05:00:33.419Z,50.00
2018-06-29T05:03:01.689Z,51.23
2018-06-29T05:05:29.804Z,50.77
2018-06-29T05:07:57.947Z,47.70
2018-06-29T05:10:34.217Z,50.77
2018-06-29T05:13:02.385Z,52.03
2018-06-29T05:15:30.614Z,49.70
2018-06-29T05:17:58.625Z,50.70
2018-06-29T05:20:26.983Z,49.93
2018-06-29T05:25:35.591Z,47.40
2018-06-29T05:28:04.958Z,46.77
2018-06-29T05:30:33.165Z,50.47
2018-06-29T05:33:08.115Z,47.20
2018-06-29T05:35:37.970Z,48.43
2018-06-29T05:38:07.855Z,50.30
2018-06-29T05:40:49.878Z,46.70
2018-06-29T05:45:58.782Z,47.27
2018-06-29T05:48:28.052Z,45.83
2018-06-29T05:50:56.585Z,45.93
2018-06-29T05:53:25.099Z,45.03
2018-06-29T05:55:53.636Z,45.13
2018-06-29T05:58:21.568Z,47.83
2018-06-29T06:00:49.792Z,42.40
2018-06-29T06:03:17.835Z,42.70
2018-06-29T06:05:46.151Z,41.30
2018-06-29T06:08:14.426Z,39.10
2018-06-29T06:10:42.573Z,39.50
2018-06-29T06:13:10.514Z,40.13
2018-06-29T06:15:38.524Z,41.07
2018-06-29T06:18:06.609Z,37.13
2018-06-29T06:20:34.615Z,39.17
2018-06-29T06:23:08.236Z,35.57
2018-06-29T06:25:36.188Z,37.67
2018-06-29T06:28:04.243Z,41.60
2018-06-29T06:30:32.153Z,39.93
2018-06-29T06:33:00.978Z,38.93
2018-06-29T06:35:29.005Z,39.97
2018-06-29T06:37:59.143Z,39.27
2018-06-29T06:40:28.785Z,41.50
2018-06-29T06:42:56.777Z,43.03
2018-06-29T06:45:24.829Z,42.40
2018-06-29T06:47:52.865Z,43.70
2018-06-29T06:50:20.924Z,40.30
2018-06-29T06:52:48.941Z,43.37
2018-06-29T06:55:16.990Z,44.60
2018-06-29T06:57:45.018Z,46.40
2018-06-29T07:00:13.260Z,45.47
2018-06-29T07:02:41.298Z,44.30
2018-06-29T07:05:09.241Z,44.07
2018-06-29T07:07:41.185Z,40.60
2018-06-29T07:10:23.062Z,42.17
2018-06-29T07:21:07.651Z,42.53
2018-06-29T07:26:22.841Z,41.33
2018-06-29T07:34:15.845Z,41.50
2018-06-29T07:39:27.913Z,37.97
2018-06-29T07:41:56.622Z,36.23
2018-06-29T07:44:35.614Z,37.30
2018-06-29T07:47:04.801Z,34.27
2018-06-29T07:49:43.658Z,39.87
2018-06-29T07:52:12.155Z,34.83
2018-06-29T07:57:14.727Z,34.37
2018-06-29T07:59:50.446Z,36.30
2018-06-29T08:05:00.124Z,33.37
2018-06-29T08:07:28.789Z,33.77
2018-06-29T08:16:06.855Z,33.30
2018-06-29T08:18:35.734Z,33.00
2018-06-29T08:21:16.908Z,34.77
2018-06-29T08:31:57.134Z,32.40
2018-06-29T08:34:27.621Z,33.57
2018-06-29T08:39:38.733Z,32.63
2018-06-29T08:42:15.926Z,32.40
2018-06-29T08:47:26.742Z,36.83
2018-06-29T08:49:55.127Z,34.27
2018-06-29T08:52:24.779Z,35.10
2018-06-29T08:54:53.147Z,35.47
2018-06-29T09:00:12.276Z,35.07
2018-06-29T09:11:07.953Z,30.47
2018-06-29T09:16:28.024Z,28.17
2018-06-29T09:21:54.644Z,29.27
2018-06-29T09:38:46.169Z,31.20
2018-06-29T10:13:42.973Z,39.73
2018-06-29T10:16:16.519Z,43.47
2018-06-29T10:30:53.970Z,37.17
2018-06-29T10:33:27.915Z,33.73
2018-06-29T10:50:38.520Z,38.67
2018-06-29T10:53:13.520Z,34.20
2018-06-29T10:55:53.192Z,37.97
2018-06-29T11:07:08.931Z,36.37
2018-06-29T11:15:18.908Z,40.97
2018-06-29T11:23:57.559Z,45.47
2018-06-29T11:26:35.498Z,39.80
2018-06-29T11:38:12.170Z,34.93
2018-06-29T11:43:50.768Z,38.20
2018-06-29T11:46:21.317Z,38.13
2018-06-29T11:48:49.959Z,40.90
2018-06-29T11:59:50.360Z,40.40
2018-06-29T12:02:18.838Z,41.10
2018-06-29T12:13:22.799Z,33.57
2018-06-29T12:18:41.045Z,35.57
2018-06-29T12:21:09.850Z,37.10
2018-06-29T12:23:39.595Z,33.27
2018-06-29T12:26:14.369Z,36.47
2018-06-29T12:31:40.998Z,37.00
2018-06-29T12:34:19.437Z,36.33
2018-06-29T12:42:41.547Z,33.87
2018-06-29T13:05:16.407Z,33.90
2018-06-29T13:16:59.056Z,32.83
2018-06-29T13:19:28.100Z,32.43
2018-06-29T13:22:10.793Z,30.07
2018-06-29T13:54:23.175Z,21.77
2018-06-29T14:11:01.035Z,25.80
2018-06-29T14:18:50.411Z,24.73
2018-06-29T14:21:20.222Z,22.83
2018-06-29T14:23:49.950Z,23.60
2018-06-29T14:28:59.737Z,26.00
2018-06-29T14:43:05.749Z,22.67
2018-06-29T14:45:41.261Z,22.23
2018-06-29T14:48:19.566Z,23.50
2018-06-29T15:02:18.315Z,25.30
2018-06-29T15:04:47.278Z,22.40
2018-06-29T15:16:20.352Z,18.80
2018-06-29T15:18:49.325Z,18.60
2018-06-29T15:29:46.365Z,18.10
2018-06-29T15:35:08.182Z,16.80
2018-06-29T15:37:37.405Z,15.17
2018-06-29T15:40:07.401Z,17.60
2018-06-29T15:48:47.468Z,18.40
2018-06-29T15:51:24.687Z,18.90
2018-06-29T15:53:55.696Z,20.23
2018-06-29T15:56:25.986Z,17.93
2018-06-29T15:58:54.517Z,17.80
2018-06-29T16:01:23.046Z,17.40
2018-06-29T16:06:42.756Z,17.80
2018-06-29T16:09:11.040Z,17.07
2018-06-29T16:11:39.417Z,18.67
2018-06-29T16:14:14.221Z,19.33
2018-06-29T16:16:43.210Z,17.10
2018-06-29T16:19:12.041Z,18.17
2018-06-29T16:21:40.924Z,15.90
2018-06-29T16:24:14.250Z,17.70
2018-06-29T16:26:42.550Z,18.40
2018-06-29T16:29:10.557Z,17.20
2018-06-29T16:31:44.022Z,17.97
2018-06-29T16:36:50.006Z,18.67
2018-06-29T16:39:18.214Z,19.23
2018-06-29T16:41:47.265Z,17.53
2018-06-29T16:44:15.531Z,18.47
2018-06-29T16:46:44.462Z,18.30
2018-06-29T16:49:16.019Z,20.97
2018-06-29T16:51:52.413Z,20.87
2018-06-29T16:54:20.444Z,19.57
2018-06-29T16:56:48.944Z,18.27
2018-06-29T16:59:17.348Z,21.47
2018-06-29T17:01:45.688Z,18.87
2018-06-29T17:04:14.233Z,19.00
2018-06-29T17:06:42.864Z,17.73
2018-06-29T17:09:11.180Z,21.23
2018-06-29T17:11:39.582Z,17.90
2018-06-29T17:14:08.521Z,20.67
2018-06-29T17:16:36.926Z,20.40
2018-06-29T17:19:05.321Z,20.27
2018-06-29T17:24:10.887Z,21.20
2018-06-29T17:26:41.752Z,21.93
2018-06-29T17:29:10.159Z,20.77
2018-06-29T17:31:38.831Z,22.90
2018-06-29T17:34:07.288Z,23.40
2018-06-29T17:39:15.012Z,21.23
2018-06-29T17:41:43.672Z,22.30
2018-06-29T17:44:12.317Z,22.13
2018-06-29T17:46:44.689Z,22.17
2018-06-29T17:49:13.454Z,22.73
2018-06-29T17:51:45.765Z,22.40
2018-06-29T17:54:14.429Z,22.30
2018-06-29T17:56:44.698Z,23.67
2018-06-29T17:59:13.122Z,22.97
2018-06-29T18:01:42.884Z,22.33
2018-06-29T18:04:10.967Z,22.80
2018-06-29T18:06:39.159Z,23.13
2018-06-29T18:09:07.723Z,24.37
2018-06-29T18:11:35.836Z,23.20
2018-06-29T18:14:04.498Z,23.83
2018-06-29T18:16:32.942Z,25.70
2018-06-29T18:19:01.327Z,23.37
2018-06-29T18:21:29.352Z,25.40
2018-06-29T18:23:57.560Z,23.87
2018-06-29T18:26:30.303Z,22.03
2018-06-29T18:28:58.832Z,23.40
2018-06-29T18:31:26.910Z,21.73
2018-06-29T18:33:55.929Z,22.43
2018-06-29T18:36:24.041Z,23.07
2018-06-29T18:38:55.728Z,22.57
2018-06-29T18:41:24.222Z,20.80
2018-06-29T18:43:53.814Z,21.07
2018-06-29T18:46:28.834Z,22.13
2018-06-29T18:51:38.952Z,23.37
2018-06-29T18:54:07.942Z,24.97
2018-06-29T18:56:36.261Z,25.20
2018-06-29T18:59:04.503Z,25.63
2018-06-29T19:01:37.213Z,24.37
2018-06-29T19:04:10.544Z,27.87
2018-06-29T19:06:39.035Z,24.33
2018-06-29T19:09:08.095Z,23.70
2018-06-29T19:11:36.264Z,23.17
2018-06-29T19:14:06.433Z,25.27
2018-06-29T19:16:37.319Z,23.03
2018-06-29T19:19:05.887Z,24.10
2018-06-29T19:21:38.210Z,25.63
2018-06-29T19:24:06.372Z,23.80
2018-06-29T19:26:34.814Z,25.13
2018-06-29T19:29:04.638Z,24.97
2018-06-29T19:31:33.037Z,26.10
2018-06-29T19:36:34.798Z,26.50
2018-06-29T19:39:03.108Z,24.00
2018-06-29T19:41:31.083Z,24.73
2018-06-29T19:43:59.275Z,25.47
2018-06-29T19:46:28.377Z,23.70
2018-06-29T19:48:56.350Z,24.10
2018-06-29T19:51:24.578Z,26.90
2018-06-29T19:53:53.016Z,24.40
2018-06-29T19:56:21.466Z,25.20
2018-06-29T19:58:50.038Z,23.40
2018-06-29T20:01:18.591Z,26.10
2018-06-29T20:03:47.335Z,25.23
2018-06-29T20:06:16.174Z,24.97
2018-06-29T20:08:45.685Z,24.20
2018-06-29T20:11:14.057Z,23.67
2018-06-29T20:13:43.228Z,25.30
2018-06-29T20:16:12.235Z,25.10
2018-06-29T20:18:40.579Z,22.87
2018-06-29T20:21:08.918Z,22.43
2018-06-29T20:23:37.013Z,23.10
2018-06-29T20:26:05.063Z,25.47
2018-06-29T20:28:33.177Z,26.30
2018-06-29T20:31:01.302Z,25.13
2018-06-29T20:33:29.286Z,25.17
2018-06-29T20:35:57.653Z,26.90
2018-06-29T20:38:25.992Z,26.43
2018-06-29T20:40:54.138Z,24.53
2018-06-29T20:43:22.937Z,27.10
2018-06-29T20:45:52.224Z,27.10
2018-06-29T20:48:21.054Z,25.73
2018-06-29T20:50:49.253Z,26.87
2018-06-29T20:53:17.694Z,27.40
2018-06-29T20:55:46.266Z,25.73
2018-06-29T20:58:21.595Z,26.03
2018-06-29T21:00:49.767Z,25.57
2018-06-29T21:03:20.495Z,26.30
2018-06-29T21:05:48.821Z,25.07
2018-06-29T21:08:17.386Z,29.33
2018-06-29T21:10:45.876Z,26.37
2018-06-29T21:13:14.792Z,27.53
2018-06-29T21:15:43.529Z,25.67
2018-06-29T21:18:12.231Z,28.10
2018-06-29T21:20:40.768Z,29.47
2018-06-29T21:23:08.718Z,30.60
2018-06-29T21:25:37.136Z,29.40
2018-06-29T21:28:05.718Z,25.80
2018-06-29T21:30:39.128Z,27.40
2018-06-29T21:33:08.307Z,29.10
2018-06-29T21:35:42.566Z,26.37
2018-06-29T21:38:11.039Z,27.33
2018-06-29T21:40:39.493Z,28.93
2018-06-29T21:43:07.882Z,27.83
2018-06-29T21:45:36.405Z,27.10
2018-06-29T21:48:05.131Z,27.37
2018-06-29T21:50:33.144Z,25.13
2018-06-29T21:53:01.181Z,23.80
2018-06-29T21:55:30.729Z,26.90
2018-06-29T21:57:59.152Z,25.93
2018-06-29T22:03:12.680Z,25.57
2018-06-29T22:05:44.955Z,27.33
2018-06-29T22:08:13.308Z,22.40
2018-06-29T22:10:41.672Z,25.47
2018-06-29T22:13:15.631Z,23.50
2018-06-29T22:15:43.937Z,25.50
2018-06-29T22:18:14.024Z,22.90
2018-06-29T22:20:42.932Z,24.07
2018-06-29T22:23:11.214Z,23.63
2018-06-29T22:25:39.519Z,25.00
2018-06-29T22:28:07.508Z,23.70
2018-06-29T22:30:35.894Z,23.20
2018-06-29T22:33:05.593Z,23.90
2018-06-29T22:35:33.667Z,24.50
2018-06-29T22:38:02.721Z,23.90
2018-06-29T22:40:30.733Z,23.17
2018-06-29T22:42:59.009Z,25.57
2018-06-29T22:45:28.504Z,25.60
2018-06-29T22:47:56.500Z,23.03
2018-06-29T22:50:24.890Z,24.50
2018-06-29T22:52:53.225Z,21.47
2018-06-29T22:55:21.953Z,23.30
2018-06-29T22:57:49.933Z,20.03
2018-06-29T23:00:18.295Z,23.00
2018-06-29T23:02:47.331Z,22.87
2018-06-29T23:05:15.928Z,23.00
2018-06-29T23:07:44.599Z,22.93
2018-06-29T23:10:12.749Z,23.57
2018-06-29T23:12:41.283Z,23.83
2018-06-29T23:15:09.995Z,22.20
2018-06-29T23:17:38.023Z,21.27
2018-06-29T23:20:06.240Z,21.73
2018-06-29T23:22:34.574Z,21.33
2018-06-29T23:25:02.776Z,21.77
2018-06-29T23:27:31.026Z,19.97
2018-06-29T23:29:58.981Z,22.00
2018-06-29T23:32:27.646Z,20.43
2018-06-29T23:34:55.616Z,21.00
2018-06-29T23:39:58.244Z,21.80
2018-06-29T23:42:26.237Z,20.00
2018-06-29T23:44:54.380Z,19.60
2018-06-29T23:47:22.501Z,22.73
2018-06-29T23:49:50.625Z,21.30
2018-06-29T23:52:19.285Z,21.50
2018-06-29T23:54:47.541Z,19.63
2018-06-29T23:57:15.798Z,20.40
2018-06-29T23:59:44.208Z,21.50
